sensor_id;sensor_type;location;lat;lon;timestamp;P1;durP1;ratioP1;P2;durP2;ratioP2
15130;SDS011;7666;50.920;4.628;2024-02-23T00:01:17;3.83;;;0.90;;
15130;SDS011;7666;50.920;4.628;2024-02-23T00:04:03;4.43;;;1.03;;
15130;SDS011;7666;50.920;4.628;2024-02-23T00:06:51;4.80;;;1.43;;
15130;SDS011;7666;50.920;4.628;2024-02-23T00:09:37;2.07;;;0.87;;
15130;SDS011;7666;50.920;4.628;2024-02-23T00:12:23;2.53;;;0.87;;
15130;SDS011;7666;50.920;4.628;2024-02-23T00:15:10;2.87;;;0.90;;
15130;SDS011;7666;50.920;4.628;2024-02-23T00:17:56;3.77;;;1.10;;
15130;SDS011;7666;50.920;4.628;2024-02-23T00:20:42;2.70;;;1.00;;
15130;SDS011;7666;50.920;4.628;2024-02-23T00:23:28;5.10;;;1.20;;
15130;SDS011;7666;50.920;4.628;2024-02-23T00:26:14;5.27;;;1.33;;
15130;SDS011;7666;50.920;4.628;2024-02-23T00:29:00;5.00;;;1.10;;
15130;SDS011;7666;50.920;4.628;2024-02-23T00:31:47;3.70;;;1.20;;
15130;SDS011;7666;50.920;4.628;2024-02-23T00:34:33;2.67;;;1.00;;
15130;SDS011;7666;50.920;4.628;2024-02-23T00:37:19;2.73;;;1.00;;
15130;SDS011;7666;50.920;4.628;2024-02-23T00:40:05;3.23;;;0.90;;
15130;SDS011;7666;50.920;4.628;2024-02-23T00:42:52;3.70;;;1.00;;
15130;SDS011;7666;50.920;4.628;2024-02-23T00:45:38;2.97;;;1.53;;
15130;SDS011;7666;50.920;4.628;2024-02-23T00:48:24;3.40;;;0.90;;
15130;SDS011;7666;50.920;4.628;2024-02-23T00:51:09;3.13;;;0.90;;
15130;SDS011;7666;50.920;4.628;2024-02-23T00:53:55;5.40;;;1.10;;
15130;SDS011;7666;50.920;4.628;2024-02-23T00:56:41;3.33;;;0.93;;
15130;SDS011;7666;50.920;4.628;2024-02-23T00:59:27;5.47;;;1.03;;
15130;SDS011;7666;50.920;4.628;2024-02-23T01:02:13;2.63;;;1.00;;
15130;SDS011;7666;50.920;4.628;2024-02-23T01:04:59;2.67;;;0.70;;
15130;SDS011;7666;50.920;4.628;2024-02-23T01:07:45;2.67;;;0.80;;
15130;SDS011;7666;50.920;4.628;2024-02-23T01:10:31;6.00;;;1.13;;
15130;SDS011;7666;50.920;4.628;2024-02-23T01:13:17;3.67;;;1.00;;
15130;SDS011;7666;50.920;4.628;2024-02-23T01:16:03;4.07;;;1.10;;
15130;SDS011;7666;50.920;4.628;2024-02-23T01:18:49;5.00;;;1.20;;
15130;SDS011;7666;50.920;4.628;2024-02-23T01:21:35;4.00;;;1.10;;
15130;SDS011;7666;50.920;4.628;2024-02-23T01:24:21;2.97;;;1.00;;
15130;SDS011;7666;50.920;4.628;2024-02-23T01:27:07;6.53;;;1.10;;
15130;SDS011;7666;50.920;4.628;2024-02-23T01:43:11;4.10;;;1.17;;
15130;SDS011;7666;50.920;4.628;2024-02-23T01:45:57;2.57;;;0.80;;
15130;SDS011;7666;50.920;4.628;2024-02-23T01:48:43;2.93;;;1.10;;
15130;SDS011;7666;50.920;4.628;2024-02-23T01:51:29;4.23;;;1.13;;
15130;SDS011;7666;50.920;4.628;2024-02-23T01:54:17;3.73;;;1.00;;
15130;SDS011;7666;50.920;4.628;2024-02-23T01:57:03;3.37;;;0.90;;
15130;SDS011;7666;50.920;4.628;2024-02-23T01:59:49;3.80;;;1.20;;
15130;SDS011;7666;50.920;4.628;2024-02-23T02:02:35;6.23;;;1.40;;
15130;SDS011;7666;50.920;4.628;2024-02-23T02:05:21;4.07;;;0.93;;
15130;SDS011;7666;50.920;4.628;2024-02-23T02:08:07;5.37;;;1.23;;
15130;SDS011;7666;50.920;4.628;2024-02-23T02:10:54;4.63;;;1.27;;
15130;SDS011;7666;50.920;4.628;2024-02-23T02:13:40;5.63;;;1.30;;
15130;SDS011;7666;50.920;4.628;2024-02-23T02:16:26;4.23;;;1.00;;
15130;SDS011;7666;50.920;4.628;2024-02-23T02:19:13;4.80;;;1.40;;
15130;SDS011;7666;50.920;4.628;2024-02-23T02:21:59;5.10;;;1.33;;
15130;SDS011;7666;50.920;4.628;2024-02-23T02:24:46;4.83;;;1.20;;
15130;SDS011;7666;50.920;4.628;2024-02-23T02:27:33;5.07;;;1.77;;
15130;SDS011;7666;50.920;4.628;2024-02-23T02:30:19;3.53;;;1.50;;
15130;SDS011;7666;50.920;4.628;2024-02-23T02:33:05;6.70;;;1.67;;
15130;SDS011;7666;50.920;4.628;2024-02-23T02:35:51;5.27;;;1.90;;
15130;SDS011;7666;50.920;4.628;2024-02-23T02:38:37;5.87;;;1.80;;
15130;SDS011;7666;50.920;4.628;2024-02-23T02:41:24;7.30;;;1.93;;
15130;SDS011;7666;50.920;4.628;2024-02-23T02:44:14;5.00;;;1.83;;
15130;SDS011;7666;50.920;4.628;2024-02-23T02:47:01;8.53;;;1.93;;
15130;SDS011;7666;50.920;4.628;2024-02-23T02:49:47;5.70;;;1.83;;
15130;SDS011;7666;50.920;4.628;2024-02-23T02:52:34;9.13;;;1.97;;
15130;SDS011;7666;50.920;4.628;2024-02-23T02:55:20;6.07;;;1.80;;
15130;SDS011;7666;50.920;4.628;2024-02-23T02:58:06;4.60;;;1.83;;
15130;SDS011;7666;50.920;4.628;2024-02-23T03:00:52;6.27;;;2.37;;
15130;SDS011;7666;50.920;4.628;2024-02-23T03:03:38;9.90;;;2.10;;
15130;SDS011;7666;50.920;4.628;2024-02-23T03:06:24;4.97;;;1.93;;
15130;SDS011;7666;50.920;4.628;2024-02-23T03:09:10;5.50;;;1.90;;
15130;SDS011;7666;50.920;4.628;2024-02-23T03:11:56;7.83;;;2.00;;
15130;SDS011;7666;50.920;4.628;2024-02-23T03:14:42;6.37;;;1.60;;
15130;SDS011;7666;50.920;4.628;2024-02-23T03:17:29;6.67;;;1.90;;
15130;SDS011;7666;50.920;4.628;2024-02-23T03:20:15;8.00;;;1.97;;
15130;SDS011;7666;50.920;4.628;2024-02-23T03:23:01;7.03;;;1.97;;
15130;SDS011;7666;50.920;4.628;2024-02-23T03:25:48;9.20;;;2.00;;
15130;SDS011;7666;50.920;4.628;2024-02-23T03:28:34;8.87;;;2.10;;
15130;SDS011;7666;50.920;4.628;2024-02-23T03:31:20;4.73;;;1.97;;
15130;SDS011;7666;50.920;4.628;2024-02-23T03:34:06;5.07;;;1.53;;
15130;SDS011;7666;50.920;4.628;2024-02-23T03:36:53;5.40;;;1.70;;
15130;SDS011;7666;50.920;4.628;2024-02-23T03:39:39;5.17;;;1.60;;
15130;SDS011;7666;50.920;4.628;2024-02-23T03:42:25;5.13;;;1.80;;
15130;SDS011;7666;50.920;4.628;2024-02-23T03:45:11;5.13;;;1.60;;
15130;SDS011;7666;50.920;4.628;2024-02-23T03:47:58;4.50;;;2.07;;
15130;SDS011;7666;50.920;4.628;2024-02-23T03:50:45;8.10;;;1.77;;
15130;SDS011;7666;50.920;4.628;2024-02-23T03:53:31;7.50;;;1.73;;
15130;SDS011;7666;50.920;4.628;2024-02-23T03:56:17;5.77;;;1.90;;
15130;SDS011;7666;50.920;4.628;2024-02-23T03:59:03;6.97;;;1.83;;
15130;SDS011;7666;50.920;4.628;2024-02-23T04:01:50;6.20;;;1.60;;
15130;SDS011;7666;50.920;4.628;2024-02-23T04:04:35;5.33;;;1.60;;
15130;SDS011;7666;50.920;4.628;2024-02-23T04:07:21;6.37;;;1.50;;
15130;SDS011;7666;50.920;4.628;2024-02-23T04:10:07;6.43;;;1.67;;
15130;SDS011;7666;50.920;4.628;2024-02-23T04:12:54;6.40;;;1.40;;
15130;SDS011;7666;50.920;4.628;2024-02-23T04:15:40;5.23;;;1.40;;
15130;SDS011;7666;50.920;4.628;2024-02-23T04:18:26;6.37;;;1.80;;
15130;SDS011;7666;50.920;4.628;2024-02-23T04:21:11;6.07;;;1.80;;
15130;SDS011;7666;50.920;4.628;2024-02-23T04:23:57;6.23;;;1.50;;
15130;SDS011;7666;50.920;4.628;2024-02-23T04:26:43;6.23;;;1.50;;
15130;SDS011;7666;50.920;4.628;2024-02-23T04:29:29;8.07;;;1.83;;
15130;SDS011;7666;50.920;4.628;2024-02-23T04:32:15;5.43;;;1.40;;
15130;SDS011;7666;50.920;4.628;2024-02-23T04:35:01;5.17;;;1.80;;
15130;SDS011;7666;50.920;4.628;2024-02-23T04:37:47;8.03;;;1.67;;
15130;SDS011;7666;50.920;4.628;2024-02-23T04:40:34;8.00;;;1.97;;
15130;SDS011;7666;50.920;4.628;2024-02-23T04:43:20;8.07;;;1.90;;
15130;SDS011;7666;50.920;4.628;2024-02-23T04:46:06;6.50;;;1.47;;
15130;SDS011;7666;50.920;4.628;2024-02-23T04:48:52;7.03;;;1.70;;
15130;SDS011;7666;50.920;4.628;2024-02-23T04:51:38;6.87;;;1.87;;
15130;SDS011;7666;50.920;4.628;2024-02-23T04:54:24;5.93;;;1.90;;
15130;SDS011;7666;50.920;4.628;2024-02-23T04:57:10;5.17;;;1.63;;
15130;SDS011;7666;50.920;4.628;2024-02-23T04:59:56;8.73;;;1.80;;
15130;SDS011;7666;50.920;4.628;2024-02-23T05:02:42;7.87;;;1.97;;
15130;SDS011;7666;50.920;4.628;2024-02-23T05:05:29;3.83;;;1.40;;
15130;SDS011;7666;50.920;4.628;2024-02-23T05:08:17;6.80;;;1.90;;
15130;SDS011;7666;50.920;4.628;2024-02-23T05:11:03;8.27;;;1.77;;
15130;SDS011;7666;50.920;4.628;2024-02-23T05:13:49;6.03;;;1.57;;
15130;SDS011;7666;50.920;4.628;2024-02-23T05:16:35;9.80;;;1.63;;
15130;SDS011;7666;50.920;4.628;2024-02-23T05:19:22;6.30;;;1.60;;
15130;SDS011;7666;50.920;4.628;2024-02-23T05:22:08;5.73;;;1.73;;
15130;SDS011;7666;50.920;4.628;2024-02-23T05:24:54;6.30;;;1.80;;
15130;SDS011;7666;50.920;4.628;2024-02-23T05:27:40;9.73;;;1.97;;
15130;SDS011;7666;50.920;4.628;2024-02-23T05:30:27;8.53;;;2.30;;
15130;SDS011;7666;50.920;4.628;2024-02-23T05:33:16;6.07;;;1.70;;
15130;SDS011;7666;50.920;4.628;2024-02-23T05:36:06;7.30;;;1.93;;
15130;SDS011;7666;50.920;4.628;2024-02-23T05:38:53;7.47;;;1.80;;
15130;SDS011;7666;50.920;4.628;2024-02-23T05:41:38;8.00;;;2.23;;
15130;SDS011;7666;50.920;4.628;2024-02-23T05:44:25;8.90;;;2.37;;
15130;SDS011;7666;50.920;4.628;2024-02-23T05:47:11;6.67;;;1.80;;
15130;SDS011;7666;50.920;4.628;2024-02-23T05:49:59;8.33;;;1.60;;
15130;SDS011;7666;50.920;4.628;2024-02-23T05:52:45;9.80;;;2.20;;
15130;SDS011;7666;50.920;4.628;2024-02-23T05:55:31;7.00;;;1.60;;
15130;SDS011;7666;50.920;4.628;2024-02-23T05:58:17;8.90;;;1.93;;
15130;SDS011;7666;50.920;4.628;2024-02-23T06:01:02;4.60;;;1.70;;
15130;SDS011;7666;50.920;4.628;2024-02-23T06:03:48;5.13;;;1.63;;
15130;SDS011;7666;50.920;4.628;2024-02-23T06:06:34;5.33;;;1.50;;
15130;SDS011;7666;50.920;4.628;2024-02-23T06:09:20;7.47;;;1.73;;
15130;SDS011;7666;50.920;4.628;2024-02-23T06:12:07;6.47;;;1.60;;
15130;SDS011;7666;50.920;4.628;2024-02-23T06:14:53;6.07;;;1.60;;
15130;SDS011;7666;50.920;4.628;2024-02-23T06:17:42;6.47;;;1.40;;
15130;SDS011;7666;50.920;4.628;2024-02-23T06:20:28;7.20;;;1.73;;
15130;SDS011;7666;50.920;4.628;2024-02-23T06:23:13;4.50;;;1.70;;
15130;SDS011;7666;50.920;4.628;2024-02-23T06:25:59;5.37;;;1.43;;
15130;SDS011;7666;50.920;4.628;2024-02-23T06:28:45;8.00;;;1.90;;
15130;SDS011;7666;50.920;4.628;2024-02-23T06:31:31;10.67;;;1.90;;
15130;SDS011;7666;50.920;4.628;2024-02-23T06:34:19;8.70;;;1.97;;
15130;SDS011;7666;50.920;4.628;2024-02-23T06:37:05;4.60;;;1.47;;
15130;SDS011;7666;50.920;4.628;2024-02-23T06:39:51;5.33;;;1.47;;
15130;SDS011;7666;50.920;4.628;2024-02-23T06:42:39;6.27;;;1.80;;
15130;SDS011;7666;50.920;4.628;2024-02-23T06:45:25;7.83;;;2.00;;
15130;SDS011;7666;50.920;4.628;2024-02-23T06:48:11;7.60;;;1.63;;
15130;SDS011;7666;50.920;4.628;2024-02-23T06:50:57;7.33;;;1.77;;
15130;SDS011;7666;50.920;4.628;2024-02-23T06:53:43;6.13;;;2.10;;
15130;SDS011;7666;50.920;4.628;2024-02-23T06:56:29;8.40;;;1.67;;
15130;SDS011;7666;50.920;4.628;2024-02-23T06:59:15;8.00;;;1.60;;
15130;SDS011;7666;50.920;4.628;2024-02-23T07:02:01;6.97;;;1.57;;
15130;SDS011;7666;50.920;4.628;2024-02-23T07:04:47;4.43;;;1.50;;
15130;SDS011;7666;50.920;4.628;2024-02-23T07:07:34;9.00;;;1.80;;
15130;SDS011;7666;50.920;4.628;2024-02-23T07:10:20;7.20;;;1.67;;
15130;SDS011;7666;50.920;4.628;2024-02-23T07:13:08;7.63;;;2.07;;
15130;SDS011;7666;50.920;4.628;2024-02-23T07:15:54;7.93;;;2.10;;
15130;SDS011;7666;50.920;4.628;2024-02-23T07:18:41;5.67;;;1.40;;
15130;SDS011;7666;50.920;4.628;2024-02-23T07:21:27;7.60;;;1.63;;
15130;SDS011;7666;50.920;4.628;2024-02-23T07:24:13;5.00;;;1.40;;
15130;SDS011;7666;50.920;4.628;2024-02-23T07:26:59;5.00;;;1.30;;
15130;SDS011;7666;50.920;4.628;2024-02-23T07:29:45;7.73;;;1.80;;
15130;SDS011;7666;50.920;4.628;2024-02-23T07:32:31;7.43;;;1.83;;
15130;SDS011;7666;50.920;4.628;2024-02-23T07:35:17;6.90;;;2.00;;
15130;SDS011;7666;50.920;4.628;2024-02-23T07:38:03;9.10;;;1.80;;
15130;SDS011;7666;50.920;4.628;2024-02-23T07:40:49;5.80;;;1.70;;
15130;SDS011;7666;50.920;4.628;2024-02-23T07:43:35;5.93;;;1.70;;
15130;SDS011;7666;50.920;4.628;2024-02-23T07:46:21;6.03;;;1.70;;
15130;SDS011;7666;50.920;4.628;2024-02-23T07:49:09;8.00;;;2.00;;
15130;SDS011;7666;50.920;4.628;2024-02-23T07:51:55;5.70;;;1.67;;
15130;SDS011;7666;50.920;4.628;2024-02-23T07:54:41;8.67;;;1.70;;
15130;SDS011;7666;50.920;4.628;2024-02-23T07:57:27;5.27;;;1.80;;
15130;SDS011;7666;50.920;4.628;2024-02-23T08:00:13;7.30;;;2.03;;
15130;SDS011;7666;50.920;4.628;2024-02-23T08:02:59;7.73;;;1.97;;
15130;SDS011;7666;50.920;4.628;2024-02-23T08:05:45;8.53;;;1.73;;
15130;SDS011;7666;50.920;4.628;2024-02-23T08:08:31;7.53;;;2.17;;
15130;SDS011;7666;50.920;4.628;2024-02-23T08:11:21;7.10;;;2.10;;
15130;SDS011;7666;50.920;4.628;2024-02-23T08:14:07;7.20;;;1.97;;
15130;SDS011;7666;50.920;4.628;2024-02-23T08:16:53;9.10;;;2.03;;
15130;SDS011;7666;50.920;4.628;2024-02-23T08:19:39;6.23;;;1.53;;
15130;SDS011;7666;50.920;4.628;2024-02-23T08:22:25;6.13;;;1.77;;
15130;SDS011;7666;50.920;4.628;2024-02-23T08:25:11;5.63;;;2.00;;
15130;SDS011;7666;50.920;4.628;2024-02-23T08:27:57;6.23;;;1.70;;
15130;SDS011;7666;50.920;4.628;2024-02-23T08:30:44;4.07;;;1.40;;
15130;SDS011;7666;50.920;4.628;2024-02-23T08:33:30;6.80;;;1.83;;
15130;SDS011;7666;50.920;4.628;2024-02-23T08:36:16;6.20;;;1.33;;
15130;SDS011;7666;50.920;4.628;2024-02-23T08:39:02;5.33;;;1.30;;
15130;SDS011;7666;50.920;4.628;2024-02-23T08:41:48;6.23;;;1.70;;
15130;SDS011;7666;50.920;4.628;2024-02-23T08:44:36;5.00;;;1.40;;
15130;SDS011;7666;50.920;4.628;2024-02-23T08:47:24;6.37;;;1.40;;
15130;SDS011;7666;50.920;4.628;2024-02-23T08:50:13;4.33;;;1.30;;
15130;SDS011;7666;50.920;4.628;2024-02-23T08:53:00;6.70;;;2.03;;
15130;SDS011;7666;50.920;4.628;2024-02-23T08:55:46;5.83;;;1.60;;
15130;SDS011;7666;50.920;4.628;2024-02-23T08:58:32;5.53;;;1.73;;
15130;SDS011;7666;50.920;4.628;2024-02-23T09:01:18;6.70;;;1.60;;
15130;SDS011;7666;50.920;4.628;2024-02-23T09:04:04;6.97;;;1.57;;
15130;SDS011;7666;50.920;4.628;2024-02-23T09:06:50;3.83;;;1.27;;
15130;SDS011;7666;50.920;4.628;2024-02-23T09:09:38;8.57;;;1.73;;
15130;SDS011;7666;50.920;4.628;2024-02-23T09:12:24;8.47;;;1.80;;
15130;SDS011;7666;50.920;4.628;2024-02-23T09:15:11;8.73;;;1.67;;
15130;SDS011;7666;50.920;4.628;2024-02-23T09:17:57;4.73;;;1.50;;
15130;SDS011;7666;50.920;4.628;2024-02-23T09:20:43;7.63;;;1.90;;
15130;SDS011;7666;50.920;4.628;2024-02-23T09:23:29;6.17;;;1.50;;
15130;SDS011;7666;50.920;4.628;2024-02-23T09:26:15;6.70;;;1.60;;
15130;SDS011;7666;50.920;4.628;2024-02-23T09:29:01;6.17;;;1.97;;
15130;SDS011;7666;50.920;4.628;2024-02-23T09:31:47;6.40;;;1.60;;
15130;SDS011;7666;50.920;4.628;2024-02-23T09:34:33;4.90;;;1.37;;
15130;SDS011;7666;50.920;4.628;2024-02-23T09:37:19;6.57;;;1.83;;
15130;SDS011;7666;50.920;4.628;2024-02-23T09:40:06;4.67;;;1.60;;
15130;SDS011;7666;50.920;4.628;2024-02-23T09:42:55;6.13;;;1.37;;
15130;SDS011;7666;50.920;4.628;2024-02-23T09:45:42;5.43;;;1.60;;
15130;SDS011;7666;50.920;4.628;2024-02-23T09:48:29;7.63;;;1.83;;
15130;SDS011;7666;50.920;4.628;2024-02-23T09:51:19;7.23;;;1.70;;
15130;SDS011;7666;50.920;4.628;2024-02-23T09:54:06;8.00;;;1.70;;
15130;SDS011;7666;50.920;4.628;2024-02-23T09:56:52;7.83;;;1.87;;
15130;SDS011;7666;50.920;4.628;2024-02-23T09:59:39;5.60;;;1.70;;
15130;SDS011;7666;50.920;4.628;2024-02-23T10:02:25;5.50;;;1.60;;
15130;SDS011;7666;50.920;4.628;2024-02-23T10:05:11;6.67;;;1.63;;
15130;SDS011;7666;50.920;4.628;2024-02-23T10:07:59;7.63;;;2.03;;
15130;SDS011;7666;50.920;4.628;2024-02-23T10:10:46;7.40;;;2.03;;
15130;SDS011;7666;50.920;4.628;2024-02-23T10:13:32;7.17;;;1.80;;
15130;SDS011;7666;50.920;4.628;2024-02-23T10:16:19;7.80;;;2.00;;
15130;SDS011;7666;50.920;4.628;2024-02-23T10:19:05;6.07;;;1.70;;
15130;SDS011;7666;50.920;4.628;2024-02-23T10:21:51;6.07;;;1.80;;
15130;SDS011;7666;50.920;4.628;2024-02-23T10:24:38;7.10;;;1.40;;
15130;SDS011;7666;50.920;4.628;2024-02-23T10:27:24;7.37;;;1.60;;
15130;SDS011;7666;50.920;4.628;2024-02-23T10:30:10;4.97;;;1.33;;
15130;SDS011;7666;50.920;4.628;2024-02-23T10:33:00;6.47;;;1.77;;
15130;SDS011;7666;50.920;4.628;2024-02-23T10:35:46;5.63;;;1.40;;
15130;SDS011;7666;50.920;4.628;2024-02-23T10:38:33;5.97;;;1.50;;
15130;SDS011;7666;50.920;4.628;2024-02-23T10:41:23;5.37;;;1.40;;
15130;SDS011;7666;50.920;4.628;2024-02-23T10:44:09;4.80;;;1.40;;
15130;SDS011;7666;50.920;4.628;2024-02-23T10:46:58;6.23;;;1.60;;
15130;SDS011;7666;50.920;4.628;2024-02-23T10:49:48;5.97;;;1.50;;
15130;SDS011;7666;50.920;4.628;2024-02-23T10:52:34;5.00;;;1.40;;
15130;SDS011;7666;50.920;4.628;2024-02-23T10:55:21;6.33;;;1.70;;
15130;SDS011;7666;50.920;4.628;2024-02-23T10:58:10;6.20;;;1.90;;
15130;SDS011;7666;50.920;4.628;2024-02-23T11:00:59;4.90;;;1.47;;
15130;SDS011;7666;50.920;4.628;2024-02-23T11:03:46;5.27;;;1.60;;
15130;SDS011;7666;50.920;4.628;2024-02-23T11:06:35;5.50;;;1.50;;
15130;SDS011;7666;50.920;4.628;2024-02-23T11:09:23;5.73;;;1.47;;
15130;SDS011;7666;50.920;4.628;2024-02-23T11:12:09;5.50;;;1.33;;
15130;SDS011;7666;50.920;4.628;2024-02-23T11:14:59;6.90;;;1.50;;
15130;SDS011;7666;50.920;4.628;2024-02-23T11:17:49;4.13;;;1.20;;
15130;SDS011;7666;50.920;4.628;2024-02-23T11:20:36;7.20;;;1.50;;
15130;SDS011;7666;50.920;4.628;2024-02-23T11:23:22;5.50;;;1.23;;
15130;SDS011;7666;50.920;4.628;2024-02-23T11:26:09;4.70;;;1.17;;
15130;SDS011;7666;50.920;4.628;2024-02-23T11:28:56;5.63;;;1.23;;
15130;SDS011;7666;50.920;4.628;2024-02-23T11:31:44;4.87;;;1.57;;
15130;SDS011;7666;50.920;4.628;2024-02-23T11:34:31;4.73;;;1.20;;
15130;SDS011;7666;50.920;4.628;2024-02-23T11:37:20;5.43;;;1.43;;
15130;SDS011;7666;50.920;4.628;2024-02-23T11:40:06;4.73;;;1.30;;
15130;SDS011;7666;50.920;4.628;2024-02-23T11:42:56;6.67;;;1.67;;
15130;SDS011;7666;50.920;4.628;2024-02-23T11:45:42;4.23;;;1.73;;
15130;SDS011;7666;50.920;4.628;2024-02-23T11:48:28;4.50;;;1.70;;
15130;SDS011;7666;50.920;4.628;2024-02-23T11:51:14;4.00;;;1.30;;
15130;SDS011;7666;50.920;4.628;2024-02-23T11:54:01;5.17;;;1.57;;
15130;SDS011;7666;50.920;4.628;2024-02-23T11:56:47;5.57;;;1.53;;
15130;SDS011;7666;50.920;4.628;2024-02-23T11:59:34;4.87;;;1.60;;
15130;SDS011;7666;50.920;4.628;2024-02-23T12:02:20;6.10;;;1.67;;
15130;SDS011;7666;50.920;4.628;2024-02-23T12:05:06;8.03;;;2.37;;
15130;SDS011;7666;50.920;4.628;2024-02-23T12:07:53;5.80;;;1.33;;
15130;SDS011;7666;50.920;4.628;2024-02-23T12:10:39;6.10;;;1.30;;
15130;SDS011;7666;50.920;4.628;2024-02-23T12:13:25;5.57;;;1.80;;
15130;SDS011;7666;50.920;4.628;2024-02-23T12:16:12;3.97;;;1.30;;
15130;SDS011;7666;50.920;4.628;2024-02-23T12:18:59;4.77;;;1.37;;
15130;SDS011;7666;50.920;4.628;2024-02-23T12:21:46;5.17;;;1.13;;
15130;SDS011;7666;50.920;4.628;2024-02-23T12:24:32;3.70;;;1.23;;
15130;SDS011;7666;50.920;4.628;2024-02-23T12:27:19;6.93;;;1.83;;
15130;SDS011;7666;50.920;4.628;2024-02-23T12:30:12;6.10;;;1.70;;
15130;SDS011;7666;50.920;4.628;2024-02-23T12:33:06;3.00;;;1.30;;
15130;SDS011;7666;50.920;4.628;2024-02-23T12:35:56;3.13;;;1.20;;
15130;SDS011;7666;50.920;4.628;2024-02-23T12:38:43;5.90;;;1.17;;
15130;SDS011;7666;50.920;4.628;2024-02-23T12:41:29;3.00;;;1.50;;
15130;SDS011;7666;50.920;4.628;2024-02-23T12:44:15;4.40;;;1.00;;
15130;SDS011;7666;50.920;4.628;2024-02-23T12:47:01;4.10;;;1.07;;
15130;SDS011;7666;50.920;4.628;2024-02-23T12:49:48;4.17;;;1.20;;
15130;SDS011;7666;50.920;4.628;2024-02-23T12:52:34;3.57;;;1.30;;
15130;SDS011;7666;50.920;4.628;2024-02-23T12:55:20;3.63;;;1.20;;
15130;SDS011;7666;50.920;4.628;2024-02-23T12:58:06;3.87;;;1.00;;
15130;SDS011;7666;50.920;4.628;2024-02-23T13:00:52;3.33;;;1.00;;
15130;SDS011;7666;50.920;4.628;2024-02-23T13:03:38;3.50;;;1.17;;
15130;SDS011;7666;50.920;4.628;2024-02-23T13:06:27;5.70;;;1.47;;
15130;SDS011;7666;50.920;4.628;2024-02-23T13:09:13;3.07;;;1.13;;
15130;SDS011;7666;50.920;4.628;2024-02-23T13:12:00;6.67;;;1.20;;
15130;SDS011;7666;50.920;4.628;2024-02-23T13:14:46;4.43;;;1.23;;
15130;SDS011;7666;50.920;4.628;2024-02-23T13:17:31;5.13;;;1.33;;
15130;SDS011;7666;50.920;4.628;2024-02-23T13:20:17;5.20;;;1.70;;
15130;SDS011;7666;50.920;4.628;2024-02-23T13:23:04;4.87;;;1.40;;
15130;SDS011;7666;50.920;4.628;2024-02-23T13:25:52;5.30;;;1.30;;
15130;SDS011;7666;50.920;4.628;2024-02-23T13:28:38;6.40;;;1.33;;
15130;SDS011;7666;50.920;4.628;2024-02-23T13:31:24;3.10;;;1.10;;
15130;SDS011;7666;50.920;4.628;2024-02-23T13:34:10;3.40;;;1.00;;
15130;SDS011;7666;50.920;4.628;2024-02-23T13:36:57;4.60;;;1.17;;
15130;SDS011;7666;50.920;4.628;2024-02-23T13:39:43;4.93;;;1.70;;
15130;SDS011;7666;50.920;4.628;2024-02-23T13:42:29;5.27;;;1.40;;
15130;SDS011;7666;50.920;4.628;2024-02-23T13:45:16;3.30;;;1.17;;
15130;SDS011;7666;50.920;4.628;2024-02-23T13:48:02;2.83;;;1.13;;
15130;SDS011;7666;50.920;4.628;2024-02-23T13:50:50;4.73;;;1.20;;
15130;SDS011;7666;50.920;4.628;2024-02-23T13:53:36;4.27;;;1.30;;
15130;SDS011;7666;50.920;4.628;2024-02-23T13:56:22;4.73;;;1.10;;
15130;SDS011;7666;50.920;4.628;2024-02-23T13:59:08;5.67;;;1.30;;
15130;SDS011;7666;50.920;4.628;2024-02-23T14:01:55;3.80;;;1.00;;
15130;SDS011;7666;50.920;4.628;2024-02-23T14:04:41;6.33;;;1.50;;
15130;SDS011;7666;50.920;4.628;2024-02-23T14:07:27;4.70;;;1.10;;
15130;SDS011;7666;50.920;4.628;2024-02-23T14:10:13;7.00;;;1.30;;
15130;SDS011;7666;50.920;4.628;2024-02-23T14:12:59;5.40;;;1.30;;
15130;SDS011;7666;50.920;4.628;2024-02-23T14:15:45;5.40;;;1.30;;
15130;SDS011;7666;50.920;4.628;2024-02-23T14:18:31;3.20;;;1.10;;
15130;SDS011;7666;50.920;4.628;2024-02-23T14:21:21;7.87;;;1.40;;
15130;SDS011;7666;50.920;4.628;2024-02-23T14:24:10;2.77;;;0.97;;
15130;SDS011;7666;50.920;4.628;2024-02-23T14:26:56;5.23;;;1.40;;
15130;SDS011;7666;50.920;4.628;2024-02-23T14:29:42;5.00;;;1.50;;
15130;SDS011;7666;50.920;4.628;2024-02-23T14:32:28;5.33;;;1.40;;
15130;SDS011;7666;50.920;4.628;2024-02-23T14:35:14;4.20;;;1.07;;
15130;SDS011;7666;50.920;4.628;2024-02-23T14:38:00;4.70;;;1.20;;
15130;SDS011;7666;50.920;4.628;2024-02-23T14:40:46;3.17;;;1.20;;
15130;SDS011;7666;50.920;4.628;2024-02-23T14:43:32;2.87;;;1.07;;
15130;SDS011;7666;50.920;4.628;2024-02-23T14:46:18;4.77;;;1.33;;
15130;SDS011;7666;50.920;4.628;2024-02-23T14:49:04;4.23;;;1.00;;
15130;SDS011;7666;50.920;4.628;2024-02-23T14:51:50;5.40;;;1.13;;
15130;SDS011;7666;50.920;4.628;2024-02-23T14:54:36;2.90;;;1.10;;
15130;SDS011;7666;50.920;4.628;2024-02-23T14:57:22;6.17;;;1.60;;
15130;SDS011;7666;50.920;4.628;2024-02-23T15:00:08;4.50;;;1.03;;
15130;SDS011;7666;50.920;4.628;2024-02-23T15:02:55;4.03;;;1.17;;
15130;SDS011;7666;50.920;4.628;2024-02-23T15:05:44;3.87;;;1.17;;
15130;SDS011;7666;50.920;4.628;2024-02-23T15:08:30;4.87;;;1.30;;
15130;SDS011;7666;50.920;4.628;2024-02-23T15:11:16;4.10;;;1.20;;
15130;SDS011;7666;50.920;4.628;2024-02-23T15:14:03;3.40;;;0.93;;
15130;SDS011;7666;50.920;4.628;2024-02-23T15:16:49;5.00;;;1.40;;
15130;SDS011;7666;50.920;4.628;2024-02-23T15:19:35;5.03;;;1.10;;
15130;SDS011;7666;50.920;4.628;2024-02-23T15:22:21;2.10;;;1.07;;
15130;SDS011;7666;50.920;4.628;2024-02-23T15:25:08;6.53;;;1.30;;
15130;SDS011;7666;50.920;4.628;2024-02-23T15:27:54;5.47;;;1.20;;
15130;SDS011;7666;50.920;4.628;2024-02-23T15:30:42;3.70;;;0.97;;
15130;SDS011;7666;50.920;4.628;2024-02-23T15:33:28;2.70;;;1.00;;
15130;SDS011;7666;50.920;4.628;2024-02-23T15:36:14;4.37;;;1.30;;
15130;SDS011;7666;50.920;4.628;2024-02-23T15:39:01;3.73;;;0.83;;
15130;SDS011;7666;50.920;4.628;2024-02-23T15:41:48;3.60;;;0.83;;
15130;SDS011;7666;50.920;4.628;2024-02-23T15:44:35;2.37;;;1.00;;
15130;SDS011;7666;50.920;4.628;2024-02-23T15:47:21;1.63;;;0.80;;
15130;SDS011;7666;50.920;4.628;2024-02-23T15:50:08;2.13;;;0.90;;
15130;SDS011;7666;50.920;4.628;2024-02-23T15:52:54;4.80;;;1.23;;
15130;SDS011;7666;50.920;4.628;2024-02-23T15:55:40;3.13;;;1.13;;
15130;SDS011;7666;50.920;4.628;2024-02-23T15:58:27;1.77;;;0.93;;
15130;SDS011;7666;50.920;4.628;2024-02-23T16:01:13;3.60;;;1.10;;
15130;SDS011;7666;50.920;4.628;2024-02-23T16:03:59;3.70;;;0.97;;
15130;SDS011;7666;50.920;4.628;2024-02-23T16:06:45;6.30;;;1.10;;
15130;SDS011;7666;50.920;4.628;2024-02-23T16:09:31;2.40;;;0.90;;
15130;SDS011;7666;50.920;4.628;2024-02-23T16:12:17;2.80;;;0.97;;
15130;SDS011;7666;50.920;4.628;2024-02-23T16:15:03;4.07;;;1.10;;
15130;SDS011;7666;50.920;4.628;2024-02-23T16:17:49;5.27;;;1.00;;
15130;SDS011;7666;50.920;4.628;2024-02-23T16:20:37;2.13;;;0.97;;
15130;SDS011;7666;50.920;4.628;2024-02-23T16:23:23;3.03;;;1.00;;
15130;SDS011;7666;50.920;4.628;2024-02-23T16:26:09;2.50;;;0.77;;
15130;SDS011;7666;50.920;4.628;2024-02-23T16:28:55;2.90;;;0.80;;
15130;SDS011;7666;50.920;4.628;2024-02-23T16:31:43;3.90;;;1.20;;
15130;SDS011;7666;50.920;4.628;2024-02-23T16:34:29;1.70;;;0.97;;
15130;SDS011;7666;50.920;4.628;2024-02-23T16:37:17;3.43;;;1.03;;
15130;SDS011;7666;50.920;4.628;2024-02-23T16:40:04;3.20;;;1.00;;
15130;SDS011;7666;50.920;4.628;2024-02-23T16:42:50;3.63;;;1.20;;
15130;SDS011;7666;50.920;4.628;2024-02-23T16:45:36;4.57;;;1.30;;
15130;SDS011;7666;50.920;4.628;2024-02-23T16:48:22;4.87;;;1.10;;
15130;SDS011;7666;50.920;4.628;2024-02-23T16:51:08;3.60;;;1.30;;
15130;SDS011;7666;50.920;4.628;2024-02-23T16:53:54;4.80;;;1.30;;
15130;SDS011;7666;50.920;4.628;2024-02-23T16:56:40;3.07;;;1.23;;
15130;SDS011;7666;50.920;4.628;2024-02-23T16:59:26;3.53;;;1.10;;
15130;SDS011;7666;50.920;4.628;2024-02-23T17:02:12;3.27;;;1.10;;
15130;SDS011;7666;50.920;4.628;2024-02-23T17:04:58;2.57;;;1.30;;
15130;SDS011;7666;50.920;4.628;2024-02-23T17:07:46;1.53;;;0.90;;
15130;SDS011;7666;50.920;4.628;2024-02-23T17:10:32;4.20;;;1.00;;